sensor_id;sensor_type;location;lat;lon;timestamp;temperature;humidity
63960;DHT22;50136;51.374;0.096;2023-06-22T00:09:37;17.80;99.90
63960;DHT22;50136;51.374;0.096;2023-06-22T00:19:40;17.70;99.90
63960;DHT22;50136;51.374;0.096;2023-06-22T00:29:42;17.60;99.90
63960;DHT22;50136;51.374;0.096;2023-06-22T00:39:46;17.40;99.90
63960;DHT22;50136;51.374;0.096;2023-06-22T00:49:48;17.30;99.90
63960;DHT22;50136;51.374;0.096;2023-06-22T00:59:52;17.10;99.90
63960;DHT22;50136;51.374;0.096;2023-06-22T01:09:59;17.00;99.90
63960;DHT22;50136;51.374;0.096;2023-06-22T01:20:08;16.90;99.90
63960;DHT22;50136;51.374;0.096;2023-06-22T01:30:13;16.70;99.90
63960;DHT22;50136;51.374;0.096;2023-06-22T01:40:19;16.60;99.90
63960;DHT22;50136;51.374;0.096;2023-06-22T01:50:22;16.40;99.90
63960;DHT22;50136;51.374;0.096;2023-06-22T02:00:25;16.40;99.90
63960;DHT22;50136;51.374;0.096;2023-06-22T02:10:32;16.30;99.90
63960;DHT22;50136;51.374;0.096;2023-06-22T02:20:37;16.20;99.90
63960;DHT22;50136;51.374;0.096;2023-06-22T02:30:40;15.90;99.90
63960;DHT22;50136;51.374;0.096;2023-06-22T02:40:42;15.80;99.90
63960;DHT22;50136;51.374;0.096;2023-06-22T02:50:45;15.70;99.90
63960;DHT22;50136;51.374;0.096;2023-06-22T03:00:47;15.50;99.90
63960;DHT22;50136;51.374;0.096;2023-06-22T03:10:51;15.40;99.90
63960;DHT22;50136;51.374;0.096;2023-06-22T03:20:53;15.30;99.90
63960;DHT22;50136;51.374;0.096;2023-06-22T03:30:57;15.20;99.90
63960;DHT22;50136;51.374;0.096;2023-06-22T03:41:00;15.00;99.90
63960;DHT22;50136;51.374;0.096;2023-06-22T03:51:03;15.00;99.90
63960;DHT22;50136;51.374;0.096;2023-06-22T04:01:05;14.90;99.90
63960;DHT22;50136;51.374;0.096;2023-06-22T04:11:08;14.90;99.90
63960;DHT22;50136;51.374;0.096;2023-06-22T04:21:11;14.90;99.90
63960;DHT22;50136;51.374;0.096;2023-06-22T04:31:14;15.00;99.90
63960;DHT22;50136;51.374;0.096;2023-06-22T04:41:16;15.20;99.90
63960;DHT22;50136;51.374;0.096;2023-06-22T04:51:19;15.10;99.90
63960;DHT22;50136;51.374;0.096;2023-06-22T05:01:21;15.20;99.90
63960;DHT22;50136;51.374;0.096;2023-06-22T05:11:25;15.30;99.90
63960;DHT22;50136;51.374;0.096;2023-06-22T05:21:27;15.50;99.90
63960;DHT22;50136;51.374;0.096;2023-06-22T05:31:31;15.70;99.90
63960;DHT22;50136;51.374;0.096;2023-06-22T05:41:33;15.90;99.90
63960;DHT22;50136;51.374;0.096;2023-06-22T05:51:36;16.30;99.90
63960;DHT22;50136;51.374;0.096;2023-06-22T06:01:38;16.70;99.90
63960;DHT22;50136;51.374;0.096;2023-06-22T06:11:42;17.20;99.90
63960;DHT22;50136;51.374;0.096;2023-06-22T06:21:44;17.60;99.90
63960;DHT22;50136;51.374;0.096;2023-06-22T06:31:47;18.00;99.90
63960;DHT22;50136;51.374;0.096;2023-06-22T06:41:50;18.20;99.90
63960;DHT22;50136;51.374;0.096;2023-06-22T06:51:53;18.60;99.90
63960;DHT22;50136;51.374;0.096;2023-06-22T07:01:55;18.90;99.90
63960;DHT22;50136;51.374;0.096;2023-06-22T07:11:58;19.20;99.90
63960;DHT22;50136;51.374;0.096;2023-06-22T07:22:00;19.30;99.90
63960;DHT22;50136;51.374;0.096;2023-06-22T07:32:05;19.80;99.90
63960;DHT22;50136;51.374;0.096;2023-06-22T07:42:07;20.40;99.90
63960;DHT22;50136;51.374;0.096;2023-06-22T07:52:10;20.60;99.90
63960;DHT22;50136;51.374;0.096;2023-06-22T08:02:12;22.10;99.90
63960;DHT22;50136;51.374;0.096;2023-06-22T08:12:16;24.30;99.90
63960;DHT22;50136;51.374;0.096;2023-06-22T08:22:18;26.00;99.90
63960;DHT22;50136;51.374;0.096;2023-06-22T08:32:22;27.80;99.30
63960;DHT22;50136;51.374;0.096;2023-06-22T08:42:24;29.10;98.10
63960;DHT22;50136;51.374;0.096;2023-06-22T08:52:28;30.30;96.00
63960;DHT22;50136;51.374;0.096;2023-06-22T09:02:30;30.60;95.20
63960;DHT22;50136;51.374;0.096;2023-06-22T09:12:34;31.90;94.10
63960;DHT22;50136;51.374;0.096;2023-06-22T09:22:36;30.20;93.50
63960;DHT22;50136;51.374;0.096;2023-06-22T09:32:39;29.30;95.00
63960;DHT22;50136;51.374;0.096;2023-06-22T09:42:41;30.20;91.70
63960;DHT22;50136;51.374;0.096;2023-06-22T09:52:45;29.90;91.50
63960;DHT22;50136;51.374;0.096;2023-06-22T10:02:49;31.90;90.30
63960;DHT22;50136;51.374;0.096;2023-06-22T10:12:57;31.80;88.70
63960;DHT22;50136;51.374;0.096;2023-06-22T10:22:59;31.70;88.10
63960;DHT22;50136;51.374;0.096;2023-06-22T10:33:02;31.30;89.60
63960;DHT22;50136;51.374;0.096;2023-06-22T10:43:05;31.40;90.30
63960;DHT22;50136;51.374;0.096;2023-06-22T10:53:08;29.60;91.10
63960;DHT22;50136;51.374;0.096;2023-06-22T11:03:10;29.50;90.90
63960;DHT22;50136;51.374;0.096;2023-06-22T11:13:16;30.50;87.90
63960;DHT22;50136;51.374;0.096;2023-06-22T11:23:18;30.00;87.70
63960;DHT22;50136;51.374;0.096;2023-06-22T11:33:22;29.80;89.10
63960;DHT22;50136;51.374;0.096;2023-06-22T11:43:25;28.20;89.70
63960;DHT22;50136;51.374;0.096;2023-06-22T11:53:29;28.30;90.50
63960;DHT22;50136;51.374;0.096;2023-06-22T12:03:31;29.70;85.60
63960;DHT22;50136;51.374;0.096;2023-06-22T12:13:35;28.90;87.90
63960;DHT22;50136;51.374;0.096;2023-06-22T12:23:37;28.10;88.80
63960;DHT22;50136;51.374;0.096;2023-06-22T12:33:40;28.00;88.70
63960;DHT22;50136;51.374;0.096;2023-06-22T12:43:42;29.20;86.40
63960;DHT22;50136;51.374;0.096;2023-06-22T12:53:46;28.40;87.60
63960;DHT22;50136;51.374;0.096;2023-06-22T13:03:48;27.80;88.90
63960;DHT22;50136;51.374;0.096;2023-06-22T13:13:51;28.80;86.90
63960;DHT22;50136;51.374;0.096;2023-06-22T13:23:53;29.40;86.90
63960;DHT22;50136;51.374;0.096;2023-06-22T13:33:57;29.40;85.60
63960;DHT22;50136;51.374;0.096;2023-06-22T13:43:59;29.50;84.90
63960;DHT22;50136;51.374;0.096;2023-06-22T13:54:02;28.70;85.40
63960;DHT22;50136;51.374;0.096;2023-06-22T14:04:05;27.90;85.80
63960;DHT22;50136;51.374;0.096;2023-06-22T14:14:08;28.80;83.70
63960;DHT22;50136;51.374;0.096;2023-06-22T14:24:10;28.50;84.00
63960;DHT22;50136;51.374;0.096;2023-06-22T14:34:14;28.90;81.50
63960;DHT22;50136;51.374;0.096;2023-06-22T14:44:16;29.30;81.80
63960;DHT22;50136;51.374;0.096;2023-06-22T14:54:19;28.70;81.20
63960;DHT22;50136;51.374;0.096;2023-06-22T15:04:22;28.90;81.30
63960;DHT22;50136;51.374;0.096;2023-06-22T15:14:25;29.50;80.90
63960;DHT22;50136;51.374;0.096;2023-06-22T15:24:28;29.90;80.00
63960;DHT22;50136;51.374;0.096;2023-06-22T15:34:32;30.30;81.10
63960;DHT22;50136;51.374;0.096;2023-06-22T15:44:34;29.20;80.00
63960;DHT22;50136;51.374;0.096;2023-06-22T15:54:37;28.80;81.30
63960;DHT22;50136;51.374;0.096;2023-06-22T16:04:39;28.50;79.80
63960;DHT22;50136;51.374;0.096;2023-06-22T16:14:43;28.50;81.80
63960;DHT22;50136;51.374;0.096;2023-06-22T16:24:45;27.70;82.50
63960;DHT22;50136;51.374;0.096;2023-06-22T16:34:48;27.30;82.40
63960;DHT22;50136;51.374;0.096;2023-06-22T16:44:50;27.10;83.40
63960;DHT22;50136;51.374;0.096;2023-06-22T16:54:54;26.90;83.40
63960;DHT22;50136;51.374;0.096;2023-06-22T17:05:02;26.60;85.90
63960;DHT22;50136;51.374;0.096;2023-06-22T17:15:09;26.40;88.00
63960;DHT22;50136;51.374;0.096;2023-06-22T17:25:12;26.20;89.90
63960;DHT22;50136;51.374;0.096;2023-06-22T17:35:17;26.00;84.70
63960;DHT22;50136;51.374;0.096;2023-06-22T17:45:21;25.30;83.00
63960;DHT22;50136;51.374;0.096;2023-06-22T17:55:25;25.20;83.20
63960;DHT22;50136;51.374;0.096;2023-06-22T18:05:28;25.00;82.50
63960;DHT22;50136;51.374;0.096;2023-06-22T18:15:33;24.50;83.30
63960;DHT22;50136;51.374;0.096;2023-06-22T18:25:36;24.20;83.60
63960;DHT22;50136;51.374;0.096;2023-06-22T18:46:50;23.60;84.20
63960;DHT22;50136;51.374;0.096;2023-06-22T18:56:53;23.50;85.40
63960;DHT22;50136;51.374;0.096;2023-06-22T19:06:57;23.30;85.90
63960;DHT22;50136;51.374;0.096;2023-06-22T19:16:59;23.00;91.90
63960;DHT22;50136;51.374;0.096;2023-06-22T19:27:04;22.50;92.50
63960;DHT22;50136;51.374;0.096;2023-06-22T19:48:14;21.70;96.10
63960;DHT22;50136;51.374;0.096;2023-06-22T19:58:22;21.40;95.40
63960;DHT22;50136;51.374;0.096;2023-06-22T20:08:26;21.20;95.80
63960;DHT22;50136;51.374;0.096;2023-06-22T20:29:31;21.00;97.40
63960;DHT22;50136;51.374;0.096;2023-06-22T20:39:37;20.90;97.40
63960;DHT22;50136;51.374;0.096;2023-06-22T21:00:43;20.50;99.90
63960;DHT22;50136;51.374;0.096;2023-06-22T21:10:45;20.30;99.90
63960;DHT22;50136;51.374;0.096;2023-06-22T21:20:48;20.10;99.30
63960;DHT22;50136;51.374;0.096;2023-06-22T21:30:50;19.80;99.80
63960;DHT22;50136;51.374;0.096;2023-06-22T21:40:54;19.60;99.90
63960;DHT22;50136;51.374;0.096;2023-06-22T21:50:56;19.40;99.90
63960;DHT22;50136;51.374;0.096;2023-06-22T22:00:59;19.30;99.90
63960;DHT22;50136;51.374;0.096;2023-06-22T22:11:01;19.30;99.90
63960;DHT22;50136;51.374;0.096;2023-06-22T22:21:05;19.40;99.90
63960;DHT22;50136;51.374;0.096;2023-06-22T22:31:40;19.30;99.90
63960;DHT22;50136;51.374;0.096;2023-06-22T22:41:44;19.30;99.90
63960;DHT22;50136;51.374;0.096;2023-06-22T22:51:46;18.90;99.90
63960;DHT22;50136;51.374;0.096;2023-06-22T23:01:49;18.70;99.90
63960;DHT22;50136;51.374;0.096;2023-06-22T23:11:51;18.40;99.90
63960;DHT22;50136;51.374;0.096;2023-06-22T23:21:55;18.10;99.90
63960;DHT22;50136;51.374;0.096;2023-06-22T23:31:57;17.90;99.90
63960;DHT22;50136;51.374;0.096;2023-06-22T23:42:00;17.60;99.90
63960;DHT22;50136;51.374;0.096;2023-06-22T23:52:03;17.50;99.90
